sensor_id;sensor_type;location;lat;lon;timestamp;temperature;humidity
26707;DHT22;14319;49.422;10.934;2023-07-29T00:01:36;18.70;99.90
26707;DHT22;14319;49.422;10.934;2023-07-29T00:03:37;18.70;99.90
26707;DHT22;14319;49.422;10.934;2023-07-29T00:05:38;18.70;99.90
26707;DHT22;14319;49.422;10.934;2023-07-29T00:07:39;18.70;99.90
26707;DHT22;14319;49.422;10.934;2023-07-29T00:09:39;18.80;99.90
26707;DHT22;14319;49.422;10.934;2023-07-29T00:11:40;18.70;99.90
26707;DHT22;14319;49.422;10.934;2023-07-29T00:13:41;18.80;99.90
26707;DHT22;14319;49.422;10.934;2023-07-29T00:15:41;18.60;99.90
26707;DHT22;14319;49.422;10.934;2023-07-29T00:17:42;18.60;99.90
26707;DHT22;14319;49.422;10.934;2023-07-29T00:19:42;18.60;99.90
26707;DHT22;14319;49.422;10.934;2023-07-29T00:21:43;18.60;99.90
26707;DHT22;14319;49.422;10.934;2023-07-29T00:23:44;18.60;99.90
26707;DHT22;14319;49.422;10.934;2023-07-29T00:25:45;18.60;99.90
26707;DHT22;14319;49.422;10.934;2023-07-29T00:27:46;18.50;99.90
26707;DHT22;14319;49.422;10.934;2023-07-29T00:29:46;18.60;99.90
26707;DHT22;14319;49.422;10.934;2023-07-29T00:31:51;18.50;99.90
26707;DHT22;14319;49.422;10.934;2023-07-29T00:33:54;18.40;99.90
26707;DHT22;14319;49.422;10.934;2023-07-29T00:35:55;18.50;99.90
26707;DHT22;14319;49.422;10.934;2023-07-29T00:37:56;18.60;99.90
26707;DHT22;14319;49.422;10.934;2023-07-29T00:39:57;18.60;99.90
26707;DHT22;14319;49.422;10.934;2023-07-29T00:41:58;18.50;99.90
26707;DHT22;14319;49.422;10.934;2023-07-29T00:43:59;18.50;99.90
26707;DHT22;14319;49.422;10.934;2023-07-29T00:46:00;18.50;99.90
26707;DHT22;14319;49.422;10.934;2023-07-29T00:48:01;18.40;99.90
26707;DHT22;14319;49.422;10.934;2023-07-29T00:50:03;18.50;99.90
26707;DHT22;14319;49.422;10.934;2023-07-29T00:52:04;18.50;99.90
26707;DHT22;14319;49.422;10.934;2023-07-29T00:54:05;18.50;99.90
26707;DHT22;14319;49.422;10.934;2023-07-29T00:56:06;18.50;99.90
26707;DHT22;14319;49.422;10.934;2023-07-29T00:58:07;18.50;99.90
26707;DHT22;14319;49.422;10.934;2023-07-29T01:00:08;18.50;99.90
26707;DHT22;14319;49.422;10.934;2023-07-29T01:02:10;18.40;99.90
26707;DHT22;14319;49.422;10.934;2023-07-29T01:04:10;18.40;99.90
26707;DHT22;14319;49.422;10.934;2023-07-29T01:08:54;18.50;99.90
26707;DHT22;14319;49.422;10.934;2023-07-29T01:11:08;18.50;99.90
26707;DHT22;14319;49.422;10.934;2023-07-29T01:13:48;18.50;99.90
26707;DHT22;14319;49.422;10.934;2023-07-29T01:15:56;18.50;99.90
26707;DHT22;14319;49.422;10.934;2023-07-29T01:18:05;18.40;99.90
26707;DHT22;14319;49.422;10.934;2023-07-29T01:20:11;18.40;99.90
26707;DHT22;14319;49.422;10.934;2023-07-29T01:22:14;18.40;99.90
26707;DHT22;14319;49.422;10.934;2023-07-29T01:24:16;18.30;99.90
26707;DHT22;14319;49.422;10.934;2023-07-29T01:26:16;18.40;99.90
26707;DHT22;14319;49.422;10.934;2023-07-29T01:28:17;18.30;99.90
26707;DHT22;14319;49.422;10.934;2023-07-29T01:30:19;18.40;99.90
26707;DHT22;14319;49.422;10.934;2023-07-29T01:35:05;18.40;99.90
26707;DHT22;14319;49.422;10.934;2023-07-29T01:37:09;18.30;99.90
26707;DHT22;14319;49.422;10.934;2023-07-29T01:39:14;18.50;99.90
26707;DHT22;14319;49.422;10.934;2023-07-29T01:41:17;18.40;99.90
26707;DHT22;14319;49.422;10.934;2023-07-29T01:43:20;18.30;99.90
26707;DHT22;14319;49.422;10.934;2023-07-29T01:45:24;18.50;99.90
26707;DHT22;14319;49.422;10.934;2023-07-29T01:47:28;18.30;99.90
26707;DHT22;14319;49.422;10.934;2023-07-29T01:49:29;18.30;99.90
26707;DHT22;14319;49.422;10.934;2023-07-29T01:51:30;18.30;99.90
26707;DHT22;14319;49.422;10.934;2023-07-29T01:53:30;18.40;99.90
26707;DHT22;14319;49.422;10.934;2023-07-29T01:55:31;18.30;99.90
26707;DHT22;14319;49.422;10.934;2023-07-29T01:57:32;18.30;99.90
26707;DHT22;14319;49.422;10.934;2023-07-29T01:59:32;18.20;99.90
26707;DHT22;14319;49.422;10.934;2023-07-29T02:01:33;18.10;99.90
26707;DHT22;14319;49.422;10.934;2023-07-29T02:03:34;18.20;99.90
26707;DHT22;14319;49.422;10.934;2023-07-29T02:05:34;18.10;99.90
26707;DHT22;14319;49.422;10.934;2023-07-29T02:07:35;18.10;99.90
26707;DHT22;14319;49.422;10.934;2023-07-29T02:09:36;18.10;99.90
26707;DHT22;14319;49.422;10.934;2023-07-29T02:11:36;18.00;99.90
26707;DHT22;14319;49.422;10.934;2023-07-29T02:13:37;18.00;99.90
26707;DHT22;14319;49.422;10.934;2023-07-29T02:15:37;17.90;99.90
26707;DHT22;14319;49.422;10.934;2023-07-29T02:17:41;17.70;99.90
26707;DHT22;14319;49.422;10.934;2023-07-29T02:19:42;17.80;99.90
26707;DHT22;14319;49.422;10.934;2023-07-29T02:21:43;17.60;99.90
26707;DHT22;14319;49.422;10.934;2023-07-29T02:23:43;17.70;99.90
26707;DHT22;14319;49.422;10.934;2023-07-29T02:25:44;17.80;99.90
26707;DHT22;14319;49.422;10.934;2023-07-29T02:27:45;17.70;99.90
26707;DHT22;14319;49.422;10.934;2023-07-29T02:29:46;17.70;99.90
26707;DHT22;14319;49.422;10.934;2023-07-29T02:31:48;17.70;99.90
26707;DHT22;14319;49.422;10.934;2023-07-29T02:33:48;17.70;99.90
26707;DHT22;14319;49.422;10.934;2023-07-29T02:35:50;17.60;99.90
26707;DHT22;14319;49.422;10.934;2023-07-29T02:37:51;17.70;99.90
26707;DHT22;14319;49.422;10.934;2023-07-29T02:39:54;17.60;99.90
26707;DHT22;14319;49.422;10.934;2023-07-29T02:41:55;17.70;99.90
26707;DHT22;14319;49.422;10.934;2023-07-29T02:43:56;17.70;99.90
26707;DHT22;14319;49.422;10.934;2023-07-29T02:45:57;17.80;99.90
26707;DHT22;14319;49.422;10.934;2023-07-29T02:47:58;17.70;99.90
26707;DHT22;14319;49.422;10.934;2023-07-29T02:49:58;17.60;99.90
26707;DHT22;14319;49.422;10.934;2023-07-29T02:51:59;17.60;99.90
26707;DHT22;14319;49.422;10.934;2023-07-29T02:54:00;17.80;99.90
26707;DHT22;14319;49.422;10.934;2023-07-29T02:56:00;17.80;99.90
26707;DHT22;14319;49.422;10.934;2023-07-29T02:58:01;17.90;99.90
26707;DHT22;14319;49.422;10.934;2023-07-29T03:00:02;17.80;99.90
26707;DHT22;14319;49.422;10.934;2023-07-29T03:02:03;17.60;99.90
26707;DHT22;14319;49.422;10.934;2023-07-29T03:04:04;17.60;99.90
26707;DHT22;14319;49.422;10.934;2023-07-29T03:06:07;17.70;99.90
26707;DHT22;14319;49.422;10.934;2023-07-29T03:08:08;17.70;99.90
26707;DHT22;14319;49.422;10.934;2023-07-29T03:10:09;17.80;99.90
26707;DHT22;14319;49.422;10.934;2023-07-29T03:12:11;17.80;99.90
26707;DHT22;14319;49.422;10.934;2023-07-29T03:14:12;17.70;99.90
26707;DHT22;14319;49.422;10.934;2023-07-29T03:16:14;17.70;99.90
26707;DHT22;14319;49.422;10.934;2023-07-29T03:18:19;17.70;99.90
26707;DHT22;14319;49.422;10.934;2023-07-29T03:20:20;17.30;99.90
26707;DHT22;14319;49.422;10.934;2023-07-29T03:22:21;17.20;99.90
26707;DHT22;14319;49.422;10.934;2023-07-29T03:24:21;17.00;99.90
26707;DHT22;14319;49.422;10.934;2023-07-29T03:26:22;17.20;99.90
26707;DHT22;14319;49.422;10.934;2023-07-29T03:28:27;17.20;99.90
26707;DHT22;14319;49.422;10.934;2023-07-29T03:30:28;17.30;99.90
26707;DHT22;14319;49.422;10.934;2023-07-29T03:32:28;17.20;99.90
26707;DHT22;14319;49.422;10.934;2023-07-29T03:34:29;17.30;99.90
26707;DHT22;14319;49.422;10.934;2023-07-29T03:36:30;17.20;99.90
26707;DHT22;14319;49.422;10.934;2023-07-29T03:38:30;17.30;99.90
26707;DHT22;14319;49.422;10.934;2023-07-29T03:40:33;17.30;99.90
26707;DHT22;14319;49.422;10.934;2023-07-29T03:42:33;17.40;99.90
26707;DHT22;14319;49.422;10.934;2023-07-29T03:44:34;17.40;99.90
26707;DHT22;14319;49.422;10.934;2023-07-29T03:46:36;17.40;99.90
26707;DHT22;14319;49.422;10.934;2023-07-29T03:48:37;17.50;99.90
26707;DHT22;14319;49.422;10.934;2023-07-29T03:50:38;17.50;99.90
26707;DHT22;14319;49.422;10.934;2023-07-29T03:52:39;17.60;99.90
26707;DHT22;14319;49.422;10.934;2023-07-29T03:54:40;17.50;99.90
26707;DHT22;14319;49.422;10.934;2023-07-29T03:56:41;17.50;99.90
26707;DHT22;14319;49.422;10.934;2023-07-29T03:58:42;17.60;99.90
26707;DHT22;14319;49.422;10.934;2023-07-29T04:00:44;17.60;99.90
26707;DHT22;14319;49.422;10.934;2023-07-29T04:02:44;17.60;99.90
26707;DHT22;14319;49.422;10.934;2023-07-29T04:04:46;17.60;99.90
26707;DHT22;14319;49.422;10.934;2023-07-29T04:06:48;17.70;99.90
26707;DHT22;14319;49.422;10.934;2023-07-29T04:08:48;17.60;99.90
26707;DHT22;14319;49.422;10.934;2023-07-29T04:10:49;17.60;99.90
26707;DHT22;14319;49.422;10.934;2023-07-29T04:12:50;17.70;99.90
26707;DHT22;14319;49.422;10.934;2023-07-29T04:14:50;17.70;99.90
26707;DHT22;14319;49.422;10.934;2023-07-29T04:16:51;17.80;99.90
26707;DHT22;14319;49.422;10.934;2023-07-29T04:18:52;17.80;99.90
26707;DHT22;14319;49.422;10.934;2023-07-29T04:20:52;17.80;99.90
26707;DHT22;14319;49.422;10.934;2023-07-29T04:22:53;17.80;99.90
26707;DHT22;14319;49.422;10.934;2023-07-29T04:24:53;17.90;99.90
26707;DHT22;14319;49.422;10.934;2023-07-29T04:26:54;17.80;99.90
26707;DHT22;14319;49.422;10.934;2023-07-29T04:28:54;17.80;99.90
26707;DHT22;14319;49.422;10.934;2023-07-29T04:30:55;17.80;99.90
26707;DHT22;14319;49.422;10.934;2023-07-29T04:32:56;17.80;99.90
26707;DHT22;14319;49.422;10.934;2023-07-29T04:34:56;17.90;99.90
26707;DHT22;14319;49.422;10.934;2023-07-29T04:36:57;17.90;99.90
26707;DHT22;14319;49.422;10.934;2023-07-29T04:38:58;17.90;99.90
26707;DHT22;14319;49.422;10.934;2023-07-29T04:40:59;17.90;99.90
26707;DHT22;14319;49.422;10.934;2023-07-29T04:43:02;18.00;99.90
26707;DHT22;14319;49.422;10.934;2023-07-29T04:45:03;18.00;99.90
26707;DHT22;14319;49.422;10.934;2023-07-29T04:47:06;18.00;99.90
26707;DHT22;14319;49.422;10.934;2023-07-29T04:49:07;18.00;99.90
26707;DHT22;14319;49.422;10.934;2023-07-29T04:51:08;18.00;99.90
26707;DHT22;14319;49.422;10.934;2023-07-29T04:53:09;18.00;99.90
26707;DHT22;14319;49.422;10.934;2023-07-29T04:55:09;18.10;99.90
26707;DHT22;14319;49.422;10.934;2023-07-29T04:57:11;18.10;99.90
26707;DHT22;14319;49.422;10.934;2023-07-29T04:59:12;18.10;99.90
26707;DHT22;14319;49.422;10.934;2023-07-29T05:01:13;18.20;99.90
26707;DHT22;14319;49.422;10.934;2023-07-29T05:03:14;18.20;99.90
26707;DHT22;14319;49.422;10.934;2023-07-29T05:05:15;18.30;99.90
26707;DHT22;14319;49.422;10.934;2023-07-29T05:07:15;18.20;99.90
26707;DHT22;14319;49.422;10.934;2023-07-29T05:09:18;18.30;99.90
26707;DHT22;14319;49.422;10.934;2023-07-29T05:11:19;18.30;99.90
26707;DHT22;14319;49.422;10.934;2023-07-29T05:13:20;18.30;99.90
26707;DHT22;14319;49.422;10.934;2023-07-29T05:15:21;18.30;99.90
26707;DHT22;14319;49.422;10.934;2023-07-29T05:17:22;18.30;99.90
26707;DHT22;14319;49.422;10.934;2023-07-29T05:19:23;18.20;99.90
26707;DHT22;14319;49.422;10.934;2023-07-29T05:21:23;18.30;99.90
26707;DHT22;14319;49.422;10.934;2023-07-29T05:23:24;18.20;99.90
26707;DHT22;14319;49.422;10.934;2023-07-29T05:25:25;18.30;99.90
26707;DHT22;14319;49.422;10.934;2023-07-29T05:27:25;18.40;99.90
26707;DHT22;14319;49.422;10.934;2023-07-29T05:29:26;18.30;99.90
26707;DHT22;14319;49.422;10.934;2023-07-29T05:31:27;18.30;99.90
26707;DHT22;14319;49.422;10.934;2023-07-29T05:33:28;18.40;99.90
26707;DHT22;14319;49.422;10.934;2023-07-29T05:35:28;18.40;99.90
26707;DHT22;14319;49.422;10.934;2023-07-29T05:37:29;18.50;99.90
26707;DHT22;14319;49.422;10.934;2023-07-29T05:39:30;18.50;99.90
26707;DHT22;14319;49.422;10.934;2023-07-29T05:41:32;18.60;99.90
26707;DHT22;14319;49.422;10.934;2023-07-29T05:43:33;18.60;99.90
26707;DHT22;14319;49.422;10.934;2023-07-29T05:45:34;18.50;99.90
26707;DHT22;14319;49.422;10.934;2023-07-29T05:47:35;18.60;99.90
26707;DHT22;14319;49.422;10.934;2023-07-29T05:49:35;18.60;99.90
26707;DHT22;14319;49.422;10.934;2023-07-29T05:51:36;18.60;99.90
26707;DHT22;14319;49.422;10.934;2023-07-29T05:53:36;18.60;99.90
26707;DHT22;14319;49.422;10.934;2023-07-29T05:55:37;18.60;99.90
26707;DHT22;14319;49.422;10.934;2023-07-29T05:57:38;18.60;99.90
26707;DHT22;14319;49.422;10.934;2023-07-29T05:59:41;18.70;99.90
26707;DHT22;14319;49.422;10.934;2023-07-29T06:01:42;18.60;99.90
26707;DHT22;14319;49.422;10.934;2023-07-29T06:03:43;18.70;99.90
26707;DHT22;14319;49.422;10.934;2023-07-29T06:05:43;18.70;99.90
26707;DHT22;14319;49.422;10.934;2023-07-29T06:07:44;18.80;99.90
26707;DHT22;14319;49.422;10.934;2023-07-29T06:09:46;18.80;99.90
26707;DHT22;14319;49.422;10.934;2023-07-29T06:11:46;18.80;99.90
26707;DHT22;14319;49.422;10.934;2023-07-29T06:13:47;18.80;99.90
26707;DHT22;14319;49.422;10.934;2023-07-29T06:15:49;18.80;99.90
26707;DHT22;14319;49.422;10.934;2023-07-29T06:17:50;18.80;99.90
26707;DHT22;14319;49.422;10.934;2023-07-29T06:19:51;18.80;99.90
26707;DHT22;14319;49.422;10.934;2023-07-29T06:21:55;18.80;99.90
26707;DHT22;14319;49.422;10.934;2023-07-29T06:23:56;18.80;99.90
26707;DHT22;14319;49.422;10.934;2023-07-29T06:25:56;18.80;99.90
26707;DHT22;14319;49.422;10.934;2023-07-29T06:27:57;18.70;99.90
26707;DHT22;14319;49.422;10.934;2023-07-29T06:29:59;18.70;99.90
26707;DHT22;14319;49.422;10.934;2023-07-29T06:32:01;18.60;99.90
26707;DHT22;14319;49.422;10.934;2023-07-29T06:34:01;18.60;99.90
26707;DHT22;14319;49.422;10.934;2023-07-29T06:36:02;18.50;99.90
26707;DHT22;14319;49.422;10.934;2023-07-29T06:38:03;18.30;99.90
26707;DHT22;14319;49.422;10.934;2023-07-29T06:40:04;18.20;99.90
26707;DHT22;14319;49.422;10.934;2023-07-29T06:42:05;18.40;99.90
26707;DHT22;14319;49.422;10.934;2023-07-29T06:44:05;18.40;99.90
26707;DHT22;14319;49.422;10.934;2023-07-29T06:46:06;18.40;99.90
26707;DHT22;14319;49.422;10.934;2023-07-29T06:48:07;18.40;99.90
26707;DHT22;14319;49.422;10.934;2023-07-29T06:50:07;18.50;99.90
26707;DHT22;14319;49.422;10.934;2023-07-29T06:52:08;18.50;99.90
26707;DHT22;14319;49.422;10.934;2023-07-29T06:54:09;18.40;99.90
26707;DHT22;14319;49.422;10.934;2023-07-29T06:56:09;18.30;99.90
26707;DHT22;14319;49.422;10.934;2023-07-29T06:58:13;18.10;99.90
26707;DHT22;14319;49.422;10.934;2023-07-29T07:00:14;18.10;99.90
26707;DHT22;14319;49.422;10.934;2023-07-29T07:02:14;17.90;99.90
26707;DHT22;14319;49.422;10.934;2023-07-29T07:04:16;18.00;99.90
26707;DHT22;14319;49.422;10.934;2023-07-29T07:06:17;17.90;99.90
26707;DHT22;14319;49.422;10.934;2023-07-29T07:08:18;18.10;99.90
26707;DHT22;14319;49.422;10.934;2023-07-29T07:10:18;18.20;99.90
26707;DHT22;14319;49.422;10.934;2023-07-29T07:12:19;18.20;99.90
26707;DHT22;14319;49.422;10.934;2023-07-29T07:14:20;18.30;99.90
26707;DHT22;14319;49.422;10.934;2023-07-29T07:16:20;18.40;99.90
26707;DHT22;14319;49.422;10.934;2023-07-29T07:18:21;18.50;99.90
26707;DHT22;14319;49.422;10.934;2023-07-29T07:20:23;18.50;99.90
26707;DHT22;14319;49.422;10.934;2023-07-29T07:22:24;18.60;99.90
26707;DHT22;14319;49.422;10.934;2023-07-29T07:24:24;18.60;99.90
26707;DHT22;14319;49.422;10.934;2023-07-29T07:26:25;18.60;99.90
26707;DHT22;14319;49.422;10.934;2023-07-29T07:28:25;18.60;99.90
26707;DHT22;14319;49.422;10.934;2023-07-29T07:30:26;18.70;99.90
26707;DHT22;14319;49.422;10.934;2023-07-29T07:32:29;18.80;99.90
26707;DHT22;14319;49.422;10.934;2023-07-29T07:34:30;18.80;99.90
26707;DHT22;14319;49.422;10.934;2023-07-29T07:36:31;19.00;99.90
26707;DHT22;14319;49.422;10.934;2023-07-29T07:38:31;18.90;99.90
26707;DHT22;14319;49.422;10.934;2023-07-29T07:40:33;18.90;99.90
26707;DHT22;14319;49.422;10.934;2023-07-29T07:42:37;19.00;99.90
26707;DHT22;14319;49.422;10.934;2023-07-29T07:44:38;19.00;99.90
26707;DHT22;14319;49.422;10.934;2023-07-29T07:46:38;19.10;99.90
26707;DHT22;14319;49.422;10.934;2023-07-29T07:48:39;18.90;99.90
26707;DHT22;14319;49.422;10.934;2023-07-29T07:50:41;18.70;99.90
26707;DHT22;14319;49.422;10.934;2023-07-29T07:52:41;18.60;99.90
26707;DHT22;14319;49.422;10.934;2023-07-29T07:54:42;18.60;99.90
26707;DHT22;14319;49.422;10.934;2023-07-29T07:56:43;18.70;99.90
26707;DHT22;14319;49.422;10.934;2023-07-29T07:58:44;18.80;99.90
26707;DHT22;14319;49.422;10.934;2023-07-29T08:00:44;18.80;99.90
26707;DHT22;14319;49.422;10.934;2023-07-29T08:02:45;18.80;99.90
26707;DHT22;14319;49.422;10.934;2023-07-29T08:04:46;18.70;99.90
26707;DHT22;14319;49.422;10.934;2023-07-29T08:06:46;18.60;99.90
26707;DHT22;14319;49.422;10.934;2023-07-29T08:08:48;18.70;99.90
26707;DHT22;14319;49.422;10.934;2023-07-29T08:10:48;18.70;99.90
26707;DHT22;14319;49.422;10.934;2023-07-29T08:12:49;18.80;99.90
26707;DHT22;14319;49.422;10.934;2023-07-29T08:14:50;18.90;99.90
26707;DHT22;14319;49.422;10.934;2023-07-29T08:16:50;18.80;99.90
26707;DHT22;14319;49.422;10.934;2023-07-29T08:18:51;18.90;99.90
26707;DHT22;14319;49.422;10.934;2023-07-29T08:20:55;18.90;99.90
26707;DHT22;14319;49.422;10.934;2023-07-29T08:22:58;19.00;99.90
26707;DHT22;14319;49.422;10.934;2023-07-29T08:24:59;18.90;99.90
26707;DHT22;14319;49.422;10.934;2023-07-29T08:26:59;18.90;99.90
26707;DHT22;14319;49.422;10.934;2023-07-29T08:29:00;18.90;99.90
26707;DHT22;14319;49.422;10.934;2023-07-29T08:31:01;19.00;99.90
26707;DHT22;14319;49.422;10.934;2023-07-29T08:33:02;19.00;99.90
26707;DHT22;14319;49.422;10.934;2023-07-29T08:35:02;19.00;99.90
26707;DHT22;14319;49.422;10.934;2023-07-29T08:37:03;19.00;99.90
26707;DHT22;14319;49.422;10.934;2023-07-29T08:39:04;19.00;99.90
26707;DHT22;14319;49.422;10.934;2023-07-29T08:41:14;19.00;99.90
26707;DHT22;14319;49.422;10.934;2023-07-29T08:43:19;19.00;99.90
26707;DHT22;14319;49.422;10.934;2023-07-29T08:45:20;19.00;99.90
26707;DHT22;14319;49.422;10.934;2023-07-29T08:47:21;18.90;99.90
26707;DHT22;14319;49.422;10.934;2023-07-29T08:49:22;18.90;99.90
26707;DHT22;14319;49.422;10.934;2023-07-29T08:51:27;18.80;99.90
26707;DHT22;14319;49.422;10.934;2023-07-29T08:53:28;18.80;99.90
26707;DHT22;14319;49.422;10.934;2023-07-29T08:55:29;18.80;99.90
26707;DHT22;14319;49.422;10.934;2023-07-29T08:57:31;18.80;99.90
26707;DHT22;14319;49.422;10.934;2023-07-29T08:59:31;18.80;99.90
26707;DHT22;14319;49.422;10.934;2023-07-29T09:01:33;18.80;99.90
26707;DHT22;14319;49.422;10.934;2023-07-29T09:03:34;18.70;99.90
26707;DHT22;14319;49.422;10.934;2023-07-29T09:05:34;18.80;99.90
26707;DHT22;14319;49.422;10.934;2023-07-29T09:07:36;18.90;99.90
26707;DHT22;14319;49.422;10.934;2023-07-29T09:09:37;18.90;99.90
26707;DHT22;14319;49.422;10.934;2023-07-29T09:11:37;19.00;99.90
26707;DHT22;14319;49.422;10.934;2023-07-29T09:13:38;18.90;99.90
26707;DHT22;14319;49.422;10.934;2023-07-29T09:15:39;18.90;99.90
26707;DHT22;14319;49.422;10.934;2023-07-29T09:17:41;18.90;99.90
26707;DHT22;14319;49.422;10.934;2023-07-29T09:19:41;18.90;99.90
26707;DHT22;14319;49.422;10.934;2023-07-29T09:21:42;19.00;99.90
26707;DHT22;14319;49.422;10.934;2023-07-29T09:23:43;18.90;99.90
26707;DHT22;14319;49.422;10.934;2023-07-29T09:25:46;18.70;99.90
26707;DHT22;14319;49.422;10.934;2023-07-29T09:27:47;18.70;99.90
26707;DHT22;14319;49.422;10.934;2023-07-29T09:29:48;18.70;99.90
26707;DHT22;14319;49.422;10.934;2023-07-29T09:31:49;18.80;99.90
26707;DHT22;14319;49.422;10.934;2023-07-29T09:33:53;18.80;99.90
26707;DHT22;14319;49.422;10.934;2023-07-29T09:35:56;18.80;99.90
26707;DHT22;14319;49.422;10.934;2023-07-29T09:37:57;19.00;99.90
26707;DHT22;14319;49.422;10.934;2023-07-29T09:39:57;19.00;99.90
26707;DHT22;14319;49.422;10.934;2023-07-29T09:41:58;19.10;99.90
26707;DHT22;14319;49.422;10.934;2023-07-29T09:44:01;19.20;99.90
26707;DHT22;14319;49.422;10.934;2023-07-29T09:46:03;19.20;99.90
26707;DHT22;14319;49.422;10.934;2023-07-29T09:48:05;19.20;99.90
26707;DHT22;14319;49.422;10.934;2023-07-29T09:50:09;19.30;99.90
26707;DHT22;14319;49.422;10.934;2023-07-29T09:52:10;19.30;99.90
26707;DHT22;14319;49.422;10.934;2023-07-29T09:54:10;19.40;99.90
26707;DHT22;14319;49.422;10.934;2023-07-29T09:56:14;19.40;99.90
26707;DHT22;14319;49.422;10.934;2023-07-29T09:58:19;19.60;99.90
26707;DHT22;14319;49.422;10.934;2023-07-29T10:00:27;19.60;99.90
26707;DHT22;14319;49.422;10.934;2023-07-29T10:02:28;19.70;99.90
26707;DHT22;14319;49.422;10.934;2023-07-29T10:04:31;19.80;99.90
26707;DHT22;14319;49.422;10.934;2023-07-29T10:06:34;19.80;99.90
26707;DHT22;14319;49.422;10.934;2023-07-29T10:08:35;19.80;99.90
26707;DHT22;14319;49.422;10.934;2023-07-29T10:10:39;19.90;99.90
26707;DHT22;14319;49.422;10.934;2023-07-29T10:12:41;19.90;99.90
26707;DHT22;14319;49.422;10.934;2023-07-29T10:14:46;20.00;99.90
26707;DHT22;14319;49.422;10.934;2023-07-29T10:16:47;20.10;99.90
26707;DHT22;14319;49.422;10.934;2023-07-29T10:18:49;20.20;99.90
26707;DHT22;14319;49.422;10.934;2023-07-29T10:20:51;20.30;99.90
26707;DHT22;14319;49.422;10.934;2023-07-29T10:22:54;20.40;99.90
26707;DHT22;14319;49.422;10.934;2023-07-29T10:25:02;20.40;99.90
26707;DHT22;14319;49.422;10.934;2023-07-29T10:27:03;20.40;99.90
26707;DHT22;14319;49.422;10.934;2023-07-29T10:29:07;20.50;99.90
26707;DHT22;14319;49.422;10.934;2023-07-29T10:31:13;20.40;99.90
26707;DHT22;14319;49.422;10.934;2023-07-29T10:33:16;20.40;99.90
26707;DHT22;14319;49.422;10.934;2023-07-29T10:35:16;20.40;99.90
26707;DHT22;14319;49.422;10.934;2023-07-29T10:37:17;20.50;99.90
26707;DHT22;14319;49.422;10.934;2023-07-29T10:39:18;20.40;99.90
26707;DHT22;14319;49.422;10.934;2023-07-29T10:41:19;20.30;99.90
26707;DHT22;14319;49.422;10.934;2023-07-29T10:43:33;20.30;99.90
26707;DHT22;14319;49.422;10.934;2023-07-29T10:45:38;20.40;99.90
26707;DHT22;14319;49.422;10.934;2023-07-29T10:47:39;20.50;99.90
26707;DHT22;14319;49.422;10.934;2023-07-29T10:49:40;20.50;99.90
26707;DHT22;14319;49.422;10.934;2023-07-29T10:51:41;20.60;99.90
26707;DHT22;14319;49.422;10.934;2023-07-29T10:53:42;20.50;99.90
26707;DHT22;14319;49.422;10.934;2023-07-29T10:55:43;20.60;99.90
26707;DHT22;14319;49.422;10.934;2023-07-29T10:57:45;20.60;99.90
26707;DHT22;14319;49.422;10.934;2023-07-29T10:59:55;20.70;99.90
26707;DHT22;14319;49.422;10.934;2023-07-29T11:02:00;20.80;99.90
26707;DHT22;14319;49.422;10.934;2023-07-29T11:06:29;21.00;99.90
26707;DHT22;14319;49.422;10.934;2023-07-29T11:08:30;20.80;99.90
26707;DHT22;14319;49.422;10.934;2023-07-29T11:10:42;20.70;99.90
26707;DHT22;14319;49.422;10.934;2023-07-29T11:12:50;20.60;99.90
26707;DHT22;14319;49.422;10.934;2023-07-29T11:14:52;20.60;99.90
26707;DHT22;14319;49.422;10.934;2023-07-29T11:16:52;20.60;99.90
26707;DHT22;14319;49.422;10.934;2023-07-29T11:18:54;20.60;99.90
26707;DHT22;14319;49.422;10.934;2023-07-29T11:20:56;20.40;99.90
26707;DHT22;14319;49.422;10.934;2023-07-29T11:23:02;20.50;99.90
26707;DHT22;14319;49.422;10.934;2023-07-29T11:25:03;20.50;99.90
26707;DHT22;14319;49.422;10.934;2023-07-29T11:27:05;20.70;99.90
26707;DHT22;14319;49.422;10.934;2023-07-29T11:29:06;20.60;99.90
26707;DHT22;14319;49.422;10.934;2023-07-29T11:31:06;20.70;99.90
26707;DHT22;14319;49.422;10.934;2023-07-29T11:33:07;20.80;99.90
26707;DHT22;14319;49.422;10.934;2023-07-29T11:35:10;20.90;99.90
26707;DHT22;14319;49.422;10.934;2023-07-29T11:37:11;20.90;99.90
26707;DHT22;14319;49.422;10.934;2023-07-29T11:39:12;21.00;99.90
26707;DHT22;14319;49.422;10.934;2023-07-29T11:41:12;20.90;99.90
26707;DHT22;14319;49.422;10.934;2023-07-29T11:43:17;21.00;99.90
26707;DHT22;14319;49.422;10.934;2023-07-29T11:45:20;21.20;99.90
26707;DHT22;14319;49.422;10.934;2023-07-29T11:47:21;21.20;99.90
26707;DHT22;14319;49.422;10.934;2023-07-29T11:49:22;21.10;99.90
26707;DHT22;14319;49.422;10.934;2023-07-29T11:51:23;21.20;99.90
26707;DHT22;14319;49.422;10.934;2023-07-29T11:53:27;21.20;99.90
26707;DHT22;14319;49.422;10.934;2023-07-29T11:55:28;21.20;99.90
26707;DHT22;14319;49.422;10.934;2023-07-29T11:57:30;21.20;99.90
26707;DHT22;14319;49.422;10.934;2023-07-29T11:59:32;21.20;99.90
26707;DHT22;14319;49.422;10.934;2023-07-29T12:01:33;21.30;99.90
26707;DHT22;14319;49.422;10.934;2023-07-29T12:03:34;21.10;99.90
26707;DHT22;14319;49.422;10.934;2023-07-29T12:05:35;21.10;99.90
26707;DHT22;14319;49.422;10.934;2023-07-29T12:07:38;21.10;99.90
26707;DHT22;14319;49.422;10.934;2023-07-29T12:09:39;21.20;99.90
26707;DHT22;14319;49.422;10.934;2023-07-29T12:11:40;21.10;99.90
26707;DHT22;14319;49.422;10.934;2023-07-29T12:13:42;21.20;99.90
26707;DHT22;14319;49.422;10.934;2023-07-29T12:15:42;21.10;99.90
26707;DHT22;14319;49.422;10.934;2023-07-29T12:17:43;21.10;99.90
26707;DHT22;14319;49.422;10.934;2023-07-29T12:19:43;21.00;99.90
26707;DHT22;14319;49.422;10.934;2023-07-29T12:21:44;21.20;99.90
26707;DHT22;14319;49.422;10.934;2023-07-29T12:23:45;21.20;99.90
26707;DHT22;14319;49.422;10.934;2023-07-29T12:25:45;21.20;98.50
26707;DHT22;14319;49.422;10.934;2023-07-29T12:27:47;21.20;99.90
26707;DHT22;14319;49.422;10.934;2023-07-29T12:29:47;21.30;99.90
26707;DHT22;14319;49.422;10.934;2023-07-29T12:31:55;21.40;98.70
26707;DHT22;14319;49.422;10.934;2023-07-29T12:33:58;21.60;99.10
26707;DHT22;14319;49.422;10.934;2023-07-29T12:35:58;21.50;97.90
26707;DHT22;14319;49.422;10.934;2023-07-29T12:38:00;21.70;98.60
26707;DHT22;14319;49.422;10.934;2023-07-29T12:40:01;21.80;99.20
26707;DHT22;14319;49.422;10.934;2023-07-29T12:42:03;22.00;97.00
26707;DHT22;14319;49.422;10.934;2023-07-29T12:44:03;22.00;97.90